createdAt,value
2018-07-20T00:00:41.725Z,9.00
2018-07-20T00:03:28.297Z,8.20
2018-07-20T00:06:05.434Z,8.63
2018-07-20T00:08:42.623Z,7.75
2018-07-20T00:11:17.815Z,8.67
2018-07-20T00:13:55.583Z,8.67
2018-07-20T00:16:29.044Z,7.77
2018-07-20T00:19:01.901Z,7.80
2018-07-20T00:21:36.335Z,8.63
2018-07-20T00:24:10.006Z,8.45
2018-07-20T00:26:43.353Z,9.10
2018-07-20T00:29:16.253Z,8.93
2018-07-20T00:31:50.011Z,8.50
2018-07-20T00:34:23.492Z,8.83
2018-07-20T00:36:58.550Z,8.53
2018-07-20T00:39:31.312Z,7.50
2018-07-20T00:42:03.860Z,8.27
2018-07-20T00:44:37.646Z,8.73
2018-07-20T00:47:11.011Z,9.13
2018-07-20T00:49:43.413Z,10.77
2018-07-20T00:52:21.993Z,9.90
2018-07-20T00:54:54.809Z,10.00
2018-07-20T00:57:29.148Z,9.00
2018-07-20T01:00:04.649Z,9.30
2018-07-20T01:02:37.312Z,9.53
2018-07-20T01:05:10.180Z,9.13
2018-07-20T01:07:44.029Z,8.57
2018-07-20T01:10:20.663Z,9.83
2018-07-20T01:12:54.114Z,8.70
2018-07-20T01:15:26.982Z,9.40
2018-07-20T01:17:59.467Z,10.20
2018-07-20T01:20:32.617Z,10.68
2018-07-20T01:23:05.452Z,9.67
2018-07-20T01:25:38.937Z,10.30
2018-07-20T01:28:11.308Z,9.67
2018-07-20T01:30:45.894Z,11.27
2018-07-20T01:33:18.399Z,9.90
2018-07-20T01:35:50.909Z,9.63
2018-07-20T01:38:25.011Z,9.93
2018-07-20T01:40:57.626Z,11.20
2018-07-20T01:43:31.039Z,9.27
2018-07-20T01:46:05.872Z,10.50
2018-07-20T01:48:38.335Z,9.93
2018-07-20T01:51:10.917Z,12.03
2018-07-20T01:53:44.656Z,11.17
2018-07-20T01:56:17.976Z,11.13
2018-07-20T01:58:51.471Z,11.17
2018-07-20T02:01:26.949Z,10.30
2018-07-20T02:03:59.492Z,10.73
2018-07-20T02:06:32.705Z,10.23
2018-07-20T02:09:10.736Z,11.13
2018-07-20T02:11:43.216Z,12.00
2018-07-20T02:14:15.806Z,12.63
2018-07-20T02:16:49.619Z,11.10
2018-07-20T02:19:22.184Z,12.90
2018-07-20T02:21:55.153Z,12.00
2018-07-20T02:24:29.032Z,11.77
2018-07-20T02:27:01.792Z,11.53
2018-07-20T02:29:34.620Z,9.37
2018-07-20T02:32:07.193Z,10.20
2018-07-20T02:34:39.676Z,10.90
2018-07-20T02:37:12.193Z,11.03
2018-07-20T02:39:46.070Z,12.63
2018-07-20T02:42:18.665Z,10.97
2018-07-20T02:44:51.256Z,12.30
2018-07-20T02:47:25.684Z,11.13
2018-07-20T02:49:58.133Z,10.87
2018-07-20T02:52:30.752Z,11.97
2018-07-20T02:55:04.819Z,11.93
2018-07-20T02:57:37.334Z,13.60
2018-07-20T03:00:12.820Z,10.37
2018-07-20T03:02:51.204Z,10.47
2018-07-20T03:05:24.624Z,10.32
2018-07-20T03:07:57.084Z,12.50
2018-07-20T03:10:30.179Z,10.80
2018-07-20T03:13:02.645Z,10.73
2018-07-20T03:15:35.071Z,12.80
2018-07-20T03:18:07.815Z,11.93
2018-07-20T03:20:40.384Z,13.30
2018-07-20T03:23:12.821Z,11.73
2018-07-20T03:25:45.773Z,11.27
2018-07-20T03:28:18.352Z,10.43
2018-07-20T03:30:50.929Z,12.00
2018-07-20T03:33:24.057Z,13.30
2018-07-20T03:35:56.477Z,14.07
2018-07-20T03:38:29.737Z,12.93
2018-07-20T03:41:02.729Z,12.23
2018-07-20T03:43:35.517Z,14.83
2018-07-20T03:46:08.269Z,13.83
2018-07-20T03:48:42.288Z,14.13
2018-07-20T03:51:14.760Z,14.63
2018-07-20T03:53:47.181Z,15.17
2018-07-20T03:56:20.001Z,16.10
2018-07-20T03:58:53.135Z,13.53
2018-07-20T04:01:26.652Z,13.60
2018-07-20T04:03:59.537Z,12.57
2018-07-20T04:06:32.764Z,12.63
2018-07-20T04:09:08.481Z,12.87
2018-07-20T04:11:41.541Z,12.33
2018-07-20T04:14:14.587Z,13.17
2018-07-20T04:16:47.309Z,13.07
2018-07-20T04:19:22.205Z,12.77
2018-07-20T04:21:55.389Z,12.07
2018-07-20T04:24:27.972Z,13.30
2018-07-20T04:27:00.742Z,12.83
2018-07-20T04:29:33.347Z,13.03
2018-07-20T04:32:06.883Z,13.00
2018-07-20T04:34:39.678Z,12.03
2018-07-20T04:37:12.307Z,12.53
2018-07-20T04:39:44.805Z,12.80
2018-07-20T04:42:17.930Z,8.93
2018-07-20T04:44:52.824Z,10.47
2018-07-20T04:47:25.473Z,10.57
2018-07-20T04:49:58.350Z,10.80
2018-07-20T04:52:30.745Z,10.00
2018-07-20T04:55:03.599Z,9.80
2018-07-20T04:57:38.808Z,8.47
2018-07-20T05:00:13.180Z,9.83
2018-07-20T05:02:45.857Z,9.20
2018-07-20T05:05:18.748Z,10.33
2018-07-20T05:07:51.602Z,9.60
2018-07-20T05:10:29.405Z,10.43
2018-07-20T05:13:04.591Z,9.33
2018-07-20T05:15:37.443Z,10.07
2018-07-20T05:18:11.573Z,9.90
2018-07-20T05:20:47.888Z,10.00
2018-07-20T05:23:22.424Z,9.80
2018-07-20T05:25:55.820Z,7.97
2018-07-20T05:28:29.493Z,10.40
2018-07-20T05:31:02.051Z,9.70
2018-07-20T05:33:38.490Z,8.67
2018-07-20T05:36:11.478Z,8.50
2018-07-20T05:38:44.352Z,8.47
2018-07-20T05:41:17.689Z,7.87
2018-07-20T05:43:50.220Z,7.97
2018-07-20T05:46:22.824Z,8.10
2018-07-20T05:48:56.562Z,8.45
2018-07-20T05:51:34.433Z,7.77
2018-07-20T05:54:09.971Z,7.67
2018-07-20T05:56:44.379Z,6.37
2018-07-20T05:59:19.540Z,7.40
2018-07-20T06:01:52.647Z,6.70
2018-07-20T06:04:25.511Z,8.07
2018-07-20T06:07:06.324Z,6.80
2018-07-20T06:09:41.595Z,7.33
2018-07-20T06:12:16.176Z,6.40
2018-07-20T06:14:49.072Z,6.57
2018-07-20T06:17:24.796Z,6.27
2018-07-20T06:20:01.960Z,6.33
2018-07-20T06:22:41.801Z,5.27
2018-07-20T06:25:19.768Z,4.97
2018-07-20T06:27:57.112Z,4.80
2018-07-20T06:30:35.184Z,4.40
2018-07-20T06:33:11.894Z,4.33
2018-07-20T06:35:54.263Z,4.60
2018-07-20T06:38:31.922Z,4.10
2018-07-20T06:41:06.511Z,4.03
2018-07-20T06:43:40.672Z,3.83
2018-07-20T06:46:14.090Z,3.50
2018-07-20T06:48:48.292Z,3.80
2018-07-20T06:51:23.631Z,3.97
2018-07-20T06:53:57.311Z,3.77
2018-07-20T06:56:30.969Z,3.63
2018-07-20T06:59:05.497Z,3.70
2018-07-20T07:01:40.014Z,3.60
2018-07-20T07:04:14.569Z,3.90
2018-07-20T07:06:48.446Z,3.87
2018-07-20T07:09:21.039Z,3.40
2018-07-20T07:11:53.516Z,3.47
2018-07-20T07:14:27.185Z,3.37
2018-07-20T07:17:00.832Z,3.50
2018-07-20T07:19:35.172Z,3.83
2018-07-20T07:22:09.271Z,3.47
2018-07-20T07:24:44.372Z,3.90
2018-07-20T07:27:19.940Z,4.33
2018-07-20T07:29:55.004Z,3.60
2018-07-20T07:32:43.218Z,3.97
2018-07-20T07:35:18.941Z,3.77
2018-07-20T07:37:55.968Z,4.07
2018-07-20T07:40:30.204Z,4.10
2018-07-20T07:43:05.344Z,3.73
2018-07-20T07:45:37.916Z,4.20
2018-07-20T07:48:11.374Z,4.03
2018-07-20T07:50:44.311Z,4.27
2018-07-20T07:53:19.556Z,4.30
2018-07-20T07:55:54.596Z,4.53
2018-07-20T07:58:31.956Z,4.23
2018-07-20T08:01:06.232Z,4.60
2018-07-20T08:03:39.264Z,4.10
2018-07-20T08:06:14.467Z,4.17
2018-07-20T08:08:47.465Z,4.30
2018-07-20T08:11:25.509Z,4.10
2018-07-20T08:13:58.497Z,4.80
2018-07-20T08:16:40.880Z,4.27
2018-07-20T08:19:15.900Z,5.13
2018-07-20T08:21:50.536Z,5.20
2018-07-20T08:24:25.548Z,4.10
2018-07-20T08:26:58.561Z,4.37
2018-07-20T08:29:31.552Z,5.03
2018-07-20T08:32:11.388Z,5.20
2018-07-20T08:34:44.201Z,4.80
2018-07-20T08:37:17.115Z,4.40
2018-07-20T08:39:52.858Z,5.77
2018-07-20T08:42:26.684Z,5.20
2018-07-20T08:45:00.302Z,6.13
2018-07-20T08:47:35.544Z,5.27
2018-07-20T08:50:12.775Z,6.07
2018-07-20T08:52:55.149Z,5.30
2018-07-20T08:55:30.485Z,5.10
2018-07-20T08:58:07.060Z,5.90
2018-07-20T09:00:42.229Z,5.50
2018-07-20T09:03:15.943Z,5.30
2018-07-20T09:05:51.468Z,6.60
2018-07-20T09:08:26.362Z,6.67
2018-07-20T09:11:02.759Z,6.13
2018-07-20T09:13:37.792Z,6.50
2018-07-20T09:16:11.476Z,6.20
2018-07-20T09:18:47.021Z,6.00
2018-07-20T09:21:23.559Z,5.13
2018-07-20T09:23:59.433Z,4.70
2018-07-20T09:26:33.805Z,5.82
2018-07-20T09:29:07.889Z,4.20
2018-07-20T09:31:43.263Z,4.90
2018-07-20T09:34:17.848Z,4.80
2018-07-20T09:36:51.461Z,4.50
2018-07-20T09:39:24.311Z,4.80
2018-07-20T09:41:57.737Z,4.53
2018-07-20T09:44:34.941Z,5.80
2018-07-20T09:47:08.430Z,5.13
2018-07-20T09:49:47.738Z,4.62
2018-07-20T09:52:28.667Z,5.07
2018-07-20T09:55:01.247Z,4.70
2018-07-20T09:57:38.125Z,4.83
2018-07-20T10:00:25.229Z,5.23
2018-07-20T10:02:59.567Z,5.10
2018-07-20T10:05:34.191Z,4.80
2018-07-20T10:08:07.681Z,4.90
2018-07-20T10:10:40.777Z,4.93
2018-07-20T10:13:16.015Z,5.10
2018-07-20T10:15:51.013Z,6.50
2018-07-20T10:18:23.995Z,4.50
2018-07-20T10:20:58.626Z,4.63
2018-07-20T10:23:37.249Z,4.90
2018-07-20T10:26:14.821Z,5.00
2018-07-20T10:28:48.308Z,4.90
2018-07-20T10:31:24.896Z,4.83
2018-07-20T10:33:57.450Z,5.73
2018-07-20T10:36:32.420Z,4.67
2018-07-20T10:39:12.544Z,5.67
2018-07-20T10:41:49.822Z,5.20
2018-07-20T10:44:25.660Z,4.90
2018-07-20T10:46:59.574Z,5.10
2018-07-20T10:49:35.396Z,4.97
2018-07-20T10:52:10.622Z,4.90
2018-07-20T10:54:49.483Z,4.68
2018-07-20T10:57:31.154Z,3.97
2018-07-20T11:00:09.924Z,4.50
2018-07-20T11:02:45.405Z,5.03
2018-07-20T11:05:33.440Z,5.10
2018-07-20T11:08:14.001Z,4.83
2018-07-20T11:10:50.537Z,4.70
2018-07-20T11:13:30.611Z,4.60
2018-07-20T11:16:10.985Z,4.60
2018-07-20T11:18:49.557Z,4.30
2018-07-20T11:21:26.334Z,4.20
2018-07-20T11:24:12.703Z,4.10
2018-07-20T11:26:55.647Z,4.10
2018-07-20T11:29:49.050Z,4.73
2018-07-20T11:32:24.484Z,4.50
2018-07-20T11:35:09.405Z,4.23
2018-07-20T11:37:55.157Z,5.13
2018-07-20T11:40:31.197Z,4.33
2018-07-20T11:43:06.997Z,4.87
2018-07-20T11:45:41.691Z,4.37
2018-07-20T11:48:18.112Z,4.40
2018-07-20T11:50:56.635Z,5.87
2018-07-20T11:53:32.157Z,4.80
2018-07-20T11:56:06.297Z,4.77
2018-07-20T11:58:39.376Z,4.73
2018-07-20T12:01:15.283Z,5.57
2018-07-20T12:03:50.632Z,4.90
2018-07-20T12:06:25.905Z,5.40
2018-07-20T12:09:01.356Z,5.10
2018-07-20T12:11:36.516Z,4.40
2018-07-20T12:14:10.048Z,4.70
2018-07-20T12:16:44.657Z,6.50
2018-07-20T12:19:20.436Z,5.63
2018-07-20T12:22:16.316Z,6.03
2018-07-20T12:24:50.779Z,6.37
2018-07-20T12:27:25.940Z,6.57
2018-07-20T12:30:00.980Z,7.57
2018-07-20T12:32:39.524Z,6.27
2018-07-20T12:35:20.512Z,5.10
2018-07-20T12:37:55.389Z,5.40
2018-07-20T12:40:29.465Z,6.27
2018-07-20T12:43:23.610Z,5.47
2018-07-20T12:46:02.107Z,6.10
2018-07-20T12:48:35.688Z,5.20
2018-07-20T12:51:18.300Z,6.03
2018-07-20T12:53:55.755Z,4.90
2018-07-20T12:56:31.700Z,6.10
2018-07-20T12:59:07.248Z,7.47
2018-07-20T13:01:41.637Z,6.97
2018-07-20T13:04:14.499Z,6.47
2018-07-20T13:06:50.601Z,5.47
2018-07-20T13:09:26.034Z,5.10
2018-07-20T13:12:03.396Z,5.80
2018-07-20T13:14:36.811Z,5.77
2018-07-20T13:17:09.350Z,5.35
2018-07-20T13:19:42.448Z,5.60
2018-07-20T13:22:16.107Z,5.60
2018-07-20T13:24:49.164Z,5.47
2018-07-20T13:27:21.827Z,5.87
2018-07-20T13:29:56.874Z,6.57
2018-07-20T13:32:31.309Z,5.57
2018-07-20T13:35:09.561Z,5.28
2018-07-20T13:37:45.705Z,4.97
2018-07-20T13:40:21.001Z,5.50
2018-07-20T13:42:53.892Z,6.07
2018-07-20T13:45:30.921Z,6.43
2018-07-20T13:48:07.517Z,6.43
2018-07-20T13:50:47.317Z,5.47
2018-07-20T13:53:21.573Z,5.80
2018-07-20T13:55:57.624Z,5.07
2018-07-20T13:58:30.785Z,5.80
2018-07-20T14:01:05.494Z,5.47
2018-07-20T14:03:39.520Z,6.03
2018-07-20T14:06:18.263Z,6.00
2018-07-20T14:08:56.415Z,7.07
2018-07-20T14:11:31.823Z,5.70
2018-07-20T14:14:07.449Z,5.47
2018-07-20T14:16:41.882Z,5.60
2018-07-20T14:19:17.649Z,5.13
2018-07-20T14:21:51.683Z,5.40
2018-07-20T14:24:25.511Z,8.10
2018-07-20T14:27:01.888Z,6.13
2018-07-20T14:29:38.696Z,5.57
2018-07-20T14:32:13.164Z,4.90
2018-07-20T14:34:47.621Z,4.85
2018-07-20T14:37:26.529Z,5.23
2018-07-20T14:40:01.020Z,6.27
2018-07-20T14:42:35.829Z,5.30
2018-07-20T14:45:12.295Z,3.90
2018-07-20T14:47:45.676Z,3.80
2018-07-20T14:50:19.118Z,3.80
2018-07-20T14:52:52.484Z,4.67
2018-07-20T14:55:27.162Z,4.00
2018-07-20T14:58:00.749Z,3.77
2018-07-20T15:00:34.940Z,4.40
2018-07-20T15:03:11.286Z,4.83
2018-07-20T15:05:45.165Z,4.30
2018-07-20T15:08:19.105Z,4.00
2018-07-20T15:10:59.772Z,4.57
2018-07-20T15:13:35.559Z,4.10
2018-07-20T15:16:09.976Z,4.03
2018-07-20T15:18:51.102Z,4.60
2018-07-20T15:21:26.736Z,4.23
2018-07-20T15:24:01.164Z,3.30
2018-07-20T15:26:35.424Z,3.70
2018-07-20T15:29:08.071Z,4.03
2018-07-20T15:31:51.525Z,4.30
2018-07-20T15:34:24.038Z,3.90
2018-07-20T15:36:57.799Z,4.23
2018-07-20T15:39:31.193Z,4.20
2018-07-20T15:42:03.822Z,5.12
2018-07-20T15:44:41.328Z,4.12
2018-07-20T15:47:16.862Z,4.17
2018-07-20T15:49:51.368Z,4.17
2018-07-20T15:55:28.075Z,3.57
2018-07-20T15:58:02.173Z,3.97
2018-07-20T16:00:35.548Z,4.30
2018-07-20T16:03:08.633Z,4.35
2018-07-20T16:05:44.381Z,4.83
2018-07-20T16:08:18.208Z,4.53
2018-07-20T16:10:50.616Z,4.47
2018-07-20T16:13:26.160Z,3.93
2018-07-20T16:15:58.820Z,4.00
2018-07-20T16:18:31.385Z,4.30
2018-07-20T16:21:04.421Z,4.40
2018-07-20T16:23:41.331Z,4.60
2018-07-20T16:26:15.175Z,4.53
2018-07-20T16:28:48.268Z,4.50
2018-07-20T16:31:21.816Z,4.07
2018-07-20T16:33:56.656Z,4.40
2018-07-20T16:36:31.628Z,3.70
2018-07-20T16:39:09.726Z,3.60
2018-07-20T16:41:43.356Z,4.20
2018-07-20T16:44:18.850Z,4.03
2018-07-20T16:46:53.467Z,3.70
2018-07-20T16:49:26.028Z,3.87
2018-07-20T16:52:01.432Z,3.90
2018-07-20T16:54:34.705Z,4.50
2018-07-20T16:57:08.648Z,5.37
2018-07-20T16:59:45.621Z,3.90
2018-07-20T17:02:21.026Z,4.70
2018-07-20T17:04:56.935Z,4.03
2018-07-20T17:07:45.041Z,3.67
2018-07-20T17:10:19.800Z,3.78
2018-07-20T17:12:54.767Z,3.95
2018-07-20T17:15:30.024Z,3.50
2018-07-20T17:18:05.635Z,3.90
2018-07-20T17:20:38.775Z,3.80
2018-07-20T17:23:14.796Z,3.80
2018-07-20T17:25:52.310Z,4.47
2018-07-20T17:28:33.245Z,4.30
2018-07-20T17:31:10.441Z,4.87
2018-07-20T17:33:46.902Z,4.20
2018-07-20T17:36:20.956Z,4.20
2018-07-20T17:38:54.236Z,4.40
2018-07-20T17:41:27.701Z,3.90
2018-07-20T17:44:05.998Z,3.70
2018-07-20T17:46:42.489Z,4.40
2018-07-20T17:49:16.880Z,4.20
2018-07-20T17:51:49.913Z,4.63
2018-07-20T17:54:23.233Z,4.60
2018-07-20T17:56:58.913Z,4.23
2018-07-20T17:59:31.726Z,4.60
2018-07-20T18:02:08.758Z,4.37
2018-07-20T18:04:41.399Z,4.93
2018-07-20T18:07:14.033Z,4.70
2018-07-20T18:09:47.732Z,5.60
2018-07-20T18:12:20.497Z,4.77
2018-07-20T18:14:53.339Z,4.70
2018-07-20T18:17:27.563Z,5.10
2018-07-20T18:20:01.519Z,5.07
2018-07-20T18:22:36.590Z,5.43
2018-07-20T18:25:09.718Z,4.33
2018-07-20T18:27:43.769Z,5.77
2018-07-20T18:30:16.952Z,5.87
2018-07-20T18:32:50.800Z,6.00
2018-07-20T18:35:23.859Z,5.37
2018-07-20T18:37:56.799Z,5.37
2018-07-20T18:40:37.764Z,6.18
2018-07-20T18:43:11.267Z,6.17
2018-07-20T18:45:44.398Z,6.07
2018-07-20T18:48:16.920Z,5.50
2018-07-20T18:50:50.683Z,5.60
2018-07-20T18:53:41.568Z,5.27
2018-07-20T18:56:15.682Z,5.43
2018-07-20T18:58:49.293Z,5.70
2018-07-20T19:01:24.376Z,5.37
2018-07-20T19:03:57.524Z,4.83
2018-07-20T19:06:30.903Z,4.97
2018-07-20T19:09:09.196Z,4.97
2018-07-20T19:11:44.389Z,4.97
2018-07-20T19:14:17.905Z,5.10
2018-07-20T19:16:52.572Z,5.50
2018-07-20T19:19:26.882Z,5.23
2018-07-20T19:22:01.200Z,5.60
2018-07-20T19:24:35.777Z,4.67
2018-07-20T19:27:10.665Z,4.83
2018-07-20T19:29:46.991Z,5.10
2018-07-20T19:32:23.716Z,4.50
2018-07-20T19:35:02.899Z,5.23
2018-07-20T19:37:37.301Z,4.40
2018-07-20T19:40:12.732Z,5.03
2018-07-20T19:42:49.280Z,5.20
2018-07-20T19:45:23.757Z,6.37
2018-07-20T19:47:57.979Z,5.27
2018-07-20T19:50:33.292Z,6.20
2018-07-20T19:53:07.873Z,5.00
2018-07-20T19:55:42.509Z,6.17
2018-07-20T19:58:16.832Z,5.60
2018-07-20T20:00:57.713Z,7.20
2018-07-20T20:03:37.455Z,7.70
2018-07-20T20:06:12.243Z,6.73
2018-07-20T20:08:51.709Z,6.43
2018-07-20T20:11:24.910Z,7.07
2018-07-20T20:13:57.637Z,7.10
2018-07-20T20:16:37.964Z,7.43
2018-07-20T20:19:12.399Z,7.80
2018-07-20T20:21:47.844Z,6.40
2018-07-20T20:24:27.780Z,6.63
2018-07-20T20:27:04.317Z,7.90
2018-07-20T20:29:44.659Z,8.20
2018-07-20T20:32:20.668Z,6.47
2018-07-20T20:34:55.099Z,6.93
2018-07-20T20:37:27.812Z,7.70
2018-07-20T20:40:03.216Z,7.90
2018-07-20T20:42:37.696Z,7.77
2018-07-20T20:45:12.491Z,8.03
2018-07-20T20:47:48.536Z,8.43
2018-07-20T20:50:26.602Z,8.10
2018-07-20T20:53:03.438Z,7.60
2018-07-20T20:55:39.344Z,6.70
2018-07-20T20:58:14.903Z,7.67
2018-07-20T21:00:54.330Z,8.27
2018-07-20T21:03:29.715Z,8.73
2018-07-20T21:06:03.465Z,6.60
2018-07-20T21:08:39.136Z,8.27
2018-07-20T21:11:14.506Z,7.37
2018-07-20T21:14:09.879Z,9.17
2018-07-20T21:16:56.929Z,8.17
2018-07-20T21:19:33.822Z,9.27
2018-07-20T21:22:08.591Z,7.77
2018-07-20T21:24:47.079Z,9.00
2018-07-20T21:27:22.177Z,8.63
2018-07-20T21:29:56.157Z,9.10
2018-07-20T21:32:30.577Z,11.15
2018-07-20T21:35:06.635Z,9.03
2018-07-20T21:37:44.376Z,10.13
2018-07-20T21:40:17.805Z,9.07
2018-07-20T21:42:52.270Z,9.97
2018-07-20T21:45:27.345Z,9.70
2018-07-20T21:48:00.580Z,10.23
2018-07-20T21:50:36.320Z,9.23
2018-07-20T21:53:11.955Z,10.17
2018-07-20T21:55:48.128Z,10.70
2018-07-20T21:58:23.613Z,11.10
2018-07-20T22:00:58.773Z,9.67
2018-07-20T22:03:33.677Z,10.30
2018-07-20T22:06:06.778Z,11.18
2018-07-20T22:08:41.686Z,9.47
2018-07-20T22:11:22.432Z,9.83
2018-07-20T22:13:55.908Z,9.03
2018-07-20T22:16:29.644Z,10.40
2018-07-20T22:19:03.972Z,8.70
2018-07-20T22:21:38.760Z,11.10
2018-07-20T22:24:17.467Z,9.77
2018-07-20T22:26:51.641Z,10.63
2018-07-20T22:29:32.140Z,9.87
2018-07-20T22:32:12.434Z,10.13
2018-07-20T22:34:47.788Z,9.53
2018-07-20T22:37:22.248Z,9.33
2018-07-20T22:39:56.200Z,9.50
2018-07-20T22:42:33.829Z,10.13
2018-07-20T22:45:09.096Z,8.37
2018-07-20T22:47:43.265Z,9.00
2018-07-20T22:50:16.166Z,10.40
2018-07-20T22:52:50.844Z,12.03
2018-07-20T22:55:29.317Z,11.20
2018-07-20T22:58:05.073Z,10.50
2018-07-20T23:00:43.464Z,11.10
2018-07-20T23:03:18.605Z,11.80
2018-07-20T23:05:53.788Z,11.07
2018-07-20T23:08:27.772Z,12.67
2018-07-20T23:11:01.308Z,13.20
2018-07-20T23:13:34.792Z,12.77
2018-07-20T23:16:09.129Z,17.00
2018-07-20T23:18:44.984Z,19.70
2018-07-20T23:21:24.229Z,16.67
2018-07-20T23:23:56.719Z,15.10
2018-07-20T23:26:29.691Z,13.70
2018-07-20T23:29:05.477Z,14.73
2018-07-20T23:31:41.330Z,16.90
2018-07-20T23:34:14.187Z,20.73
2018-07-20T23:36:47.003Z,15.67
2018-07-20T23:39:20.106Z,15.00
2018-07-20T23:41:54.628Z,18.57
2018-07-20T23:44:27.422Z,20.23
2018-07-20T23:47:00.616Z,16.33
2018-07-20T23:49:33.538Z,17.17
2018-07-20T23:52:07.061Z,17.20
2018-07-20T23:54:40.414Z,16.07
2018-07-20T23:57:13.332Z,18.53
2018-07-20T23:59:47.163Z,21.80
